Time;durP1;ratioP1;P1;durP2;ratioP2;P2;SDS_P1;SDS_P2;PMS_P1;PMS_P2;Temp;Humidity;BMP_temperature;BMP_pressure;BME280_temperature;BME280_humidity;BME280_pressure;Samples;Min_cycle;Max_cycle;Signal;HPM_P1;HPM_P2
2023/01/29 01:19:02;;;;;;;63.25;31.40;;;;;;;;;;4967029;23;20342;-92
2023/01/29 01:21:29;;;;;;;59.53;32.55;;;;;;;;;;4942216;29;20035;-92
2023/01/29 01:29:44;;;;;;;68.40;35.03;;;;;;;;;;4928436;29;20039;-93
2023/01/29 01:32:10;;;;;;;75.93;37.65;;;;;;;;;;4925132;29;20351;-93
2023/01/29 01:34:36;;;;;;;70.95;35.40;;;;;;;;;;4925040;29;20407;-92
2023/01/29 01:37:03;;;;;;;65.53;33.00;;;;;;;;;;4925277;29;20038;-93
2023/01/29 05:31:08;;;;;;;62.92;30.98;;;;;;;;;;5097987;23;20061;-91
2023/01/29 06:37:54;;;;;;;36.75;17.63;;;;;;;;;;4882739;29;19924;-95
2023/01/29 06:40:20;;;;;;;35.78;17.67;;;;;;;;;;4884187;29;20029;-92
2023/01/29 06:42:46;;;;;;;30.92;16.80;;;;;;;;;;4884294;29;20302;-94
2023/01/29 06:45:13;;;;;;;31.63;16.95;;;;;;;;;;4883989;29;20025;-92
2023/01/29 06:47:39;;;;;;;32.67;16.95;;;;;;;;;;4882916;29;20052;-93
2023/01/29 06:50:05;;;;;;;35.03;18.05;;;;;;;;;;4884220;29;20025;-94
2023/01/29 06:52:31;;;;;;;33.35;18.83;;;;;;;;;;4883995;29;20112;-93
2023/01/29 06:54:58;;;;;;;41.17;20.05;;;;;;;;;;4884016;29;20039;-93
2023/01/29 06:57:24;;;;;;;35.30;18.27;;;;;;;;;;4883942;29;20108;-94
2023/01/29 06:59:50;;;;;;;33.63;17.63;;;;;;;;;;4883756;29;20029;-92
2023/01/29 07:02:16;;;;;;;35.50;18.00;;;;;;;;;;4882870;29;20111;-94
2023/01/29 07:04:42;;;;;;;33.88;18.27;;;;;;;;;;4883141;29;20120;-94
2023/01/29 07:07:12;;;;;;;34.60;18.38;;;;;;;;;;4884003;29;20033;-92
2023/01/29 07:09:39;;;;;;;35.35;18.40;;;;;;;;;;4884101;29;20104;-95
2023/01/29 07:15:37;;;;;;;33.72;17.92;;;;;;;;;;4884208;29;20100;-93
2023/01/29 07:18:10;;;;;;;33.45;17.65;;;;;;;;;;4882926;29;20025;-92
2023/01/29 07:20:37;;;;;;;37.35;18.92;;;;;;;;;;4883991;29;20085;-95
2023/01/29 07:23:03;;;;;;;39.50;20.77;;;;;;;;;;4883749;29;20018;-93
2023/01/29 07:25:29;;;;;;;45.58;25.52;;;;;;;;;;4882715;29;20021;-93
2023/01/29 07:27:55;;;;;;;42.10;21.17;;;;;;;;;;4883747;29;20080;-93
2023/01/29 07:30:22;;;;;;;38.47;20.27;;;;;;;;;;4883456;29;20029;-93
2023/01/29 07:32:48;;;;;;;33.42;18.60;;;;;;;;;;4870648;29;20025;-93
2023/01/29 07:35:14;;;;;;;41.08;20.85;;;;;;;;;;4883921;29;20053;-93
2023/01/29 07:37:40;;;;;;;48.35;24.70;;;;;;;;;;4867087;29;20053;-93
2023/01/29 07:40:10;;;;;;;37.55;21.35;;;;;;;;;;4867891;29;20061;-92
2023/01/29 07:42:41;;;;;;;39.47;19.02;;;;;;;;;;4883732;29;20321;-92
2023/01/29 07:45:07;;;;;;;35.03;18.52;;;;;;;;;;4883508;29;20068;-92
2023/01/29 07:47:33;;;;;;;39.13;20.08;;;;;;;;;;4866993;29;20025;-93
2023/01/29 07:50:00;;;;;;;51.03;25.27;;;;;;;;;;4883423;29;20029;-93
2023/01/29 07:52:26;;;;;;;36.63;21.50;;;;;;;;;;4878770;29;20119;-94
2023/01/29 07:54:52;;;;;;;31.73;17.75;;;;;;;;;;4902237;29;20025;-93
2023/01/29 07:57:36;;;;;;;40.55;20.58;;;;;;;;;;4903293;29;20324;-93
2023/01/29 08:00:03;;;;;;;36.95;19.17;;;;;;;;;;4906038;29;20028;-92
2023/01/29 08:02:29;;;;;;;35.90;18.77;;;;;;;;;;4905915;29;20408;-93
2023/01/29 08:04:55;;;;;;;34.22;18.02;;;;;;;;;;4904547;29;20123;-93
2023/01/29 08:07:21;;;;;;;32.97;17.73;;;;;;;;;;4894548;29;20045;-93
2023/01/29 08:09:47;;;;;;;35.05;17.80;;;;;;;;;;4870464;29;20101;-95
2023/01/29 08:12:13;;;;;;;31.65;18.27;;;;;;;;;;4886909;29;20025;-95
2023/01/29 08:14:39;;;;;;;32.15;17.13;;;;;;;;;;4869894;29;20037;-94
2023/01/29 08:17:06;;;;;;;34.25;18.33;;;;;;;;;;4895423;29;20047;-92
2023/01/29 08:19:32;;;;;;;32.50;16.88;;;;;;;;;;4876361;29;20022;-92
2023/01/29 08:21:58;;;;;;;31.98;17.13;;;;;;;;;;4868165;29;20029;-93
2023/01/29 08:24:24;;;;;;;35.95;17.30;;;;;;;;;;4867770;29;20041;-94
2023/01/29 08:26:50;;;;;;;33.55;18.52;;;;;;;;;;4873815;29;20033;-93
2023/01/29 08:29:16;;;;;;;39.03;18.75;;;;;;;;;;4870214;29;20045;-92
2023/01/29 08:31:42;;;;;;;35.40;18.80;;;;;;;;;;4870036;29;20085;-92
2023/01/29 08:34:08;;;;;;;35.15;18.25;;;;;;;;;;4879196;29;20033;-93
2023/01/29 08:36:34;;;;;;;34.97;19.05;;;;;;;;;;4886103;29;20348;-94
2023/01/29 08:39:00;;;;;;;41.33;20.08;;;;;;;;;;4886307;29;20029;-94
2023/01/29 08:41:26;;;;;;;35.13;18.67;;;;;;;;;;4885546;29;20064;-92
2023/01/29 08:43:52;;;;;;;33.72;17.75;;;;;;;;;;4886550;29;20029;-95
2023/01/29 08:46:19;;;;;;;34.25;17.15;;;;;;;;;;4885433;29;20029;-93
2023/01/29 08:48:45;;;;;;;35.28;17.83;;;;;;;;;;4885400;29;20052;-94
2023/01/29 08:51:11;;;;;;;35.42;18.88;;;;;;;;;;4886113;29;20431;-94
2023/01/29 08:53:37;;;;;;;50.10;23.45;;;;;;;;;;4885826;29;20033;-94
2023/01/29 08:59:07;;;;;;;40.38;21.05;;;;;;;;;;4904512;29;20055;-93
2023/01/29 09:01:33;;;;;;;40.40;19.40;;;;;;;;;;4900391;29;20029;-92
2023/01/29 09:03:59;;;;;;;38.75;18.75;;;;;;;;;;4885977;29;20025;-93
2023/01/29 09:06:25;;;;;;;41.85;19.70;;;;;;;;;;4869407;29;20033;-92
2023/01/29 09:08:51;;;;;;;41.38;19.30;;;;;;;;;;4886889;29;20037;-93
2023/01/29 09:11:17;;;;;;;39.40;19.33;;;;;;;;;;4903215;29;20063;-93
2023/01/29 09:13:43;;;;;;;42.08;19.13;;;;;;;;;;4904395;29;20032;-94
2023/01/29 09:16:09;;;;;;;37.45;18.80;;;;;;;;;;4904793;29;20174;-94
2023/01/29 09:18:35;;;;;;;34.00;18.10;;;;;;;;;;4904510;29;20024;-93
2023/01/29 09:21:02;;;;;;;32.58;17.35;;;;;;;;;;4903598;29;20021;-93
2023/01/29 09:23:29;;;;;;;43.78;21.83;;;;;;;;;;4904662;29;20072;-95
2023/01/29 09:25:55;;;;;;;41.55;21.25;;;;;;;;;;4904175;29;20072;-93
2023/01/29 09:28:22;;;;;;;49.33;24.45;;;;;;;;;;4905784;29;20107;-94
2023/01/29 09:30:48;;;;;;;60.55;29.27;;;;;;;;;;4886163;29;20037;-93
2023/01/29 09:33:14;;;;;;;38.58;19.05;;;;;;;;;;4884875;29;20068;-89
2023/01/29 09:35:40;;;;;;;48.92;23.23;;;;;;;;;;4887374;29;20104;-92
2023/01/29 09:38:07;;;;;;;48.15;22.98;;;;;;;;;;4868913;29;20113;-93
2023/01/29 09:46:43;;;;;;;31.67;16.63;;;;;;;;;;4885432;29;20044;-94
2023/01/29 09:49:13;;;;;;;39.40;18.88;;;;;;;;;;4873730;29;20429;-93
2023/01/29 09:51:46;;;;;;;33.53;18.10;;;;;;;;;;4868661;29;20025;-92
2023/01/29 09:54:16;;;;;;;33.55;17.38;;;;;;;;;;4868649;29;20033;-93
2023/01/29 09:56:43;;;;;;;64.18;26.60;;;;;;;;;;4884992;29;20021;-93
2023/01/29 09:59:11;;;;;;;50.50;23.40;;;;;;;;;;4884910;29;20032;-92
2023/01/29 10:01:37;;;;;;;56.15;24.15;;;;;;;;;;4868610;29;20039;-95
2023/01/29 10:04:03;;;;;;;38.22;17.30;;;;;;;;;;4868597;29;20112;-92
2023/01/29 10:06:29;;;;;;;50.50;22.95;;;;;;;;;;4879062;29;20034;-91
2023/01/29 10:09:07;;;;;;;74.28;30.55;;;;;;;;;;4878994;29;20060;-91
2023/01/29 10:11:43;;;;;;;59.03;23.45;;;;;;;;;;4865487;29;20072;-90
2023/01/29 10:14:24;;;;;;;39.33;18.20;;;;;;;;;;4868008;29;20033;-92
2023/01/29 10:17:02;;;;;;;45.67;20.92;;;;;;;;;;4868381;29;20032;-92
2023/01/29 10:19:41;;;;;;;39.20;18.90;;;;;;;;;;4884029;29;20112;-94
2023/01/29 10:22:25;;;;;;;40.53;18.52;;;;;;;;;;4868363;29;20037;-92
2023/01/29 10:25:01;;;;;;;47.60;22.23;;;;;;;;;;4867960;29;20037;-92
2023/01/29 10:30:34;;;;;;;40.88;21.08;;;;;;;;;;4865668;29;20027;-92
2023/01/29 10:33:04;;;;;;;50.50;25.50;;;;;;;;;;4872138;29;20029;-92
2023/01/29 10:35:33;;;;;;;61.65;26.80;;;;;;;;;;4878403;29;20064;-92
2023/01/29 10:38:11;;;;;;;60.28;29.55;;;;;;;;;;4865577;29;20066;-92
2023/01/29 10:40:39;;;;;;;57.63;24.65;;;;;;;;;;4878842;29;20028;-91
2023/01/29 10:46:15;;;;;;;35.70;19.10;;;;;;;;;;4865677;29;20033;-91
2023/01/29 10:48:49;;;;;;;37.83;20.33;;;;;;;;;;4864441;29;20038;-90
2023/01/29 10:51:15;;;;;;;31.95;16.25;;;;;;;;;;4881101;29;20131;-91
2023/01/29 10:54:08;;;;;;;48.08;22.02;;;;;;;;;;4884218;29;20040;-91
2023/01/29 10:57:03;;;;;;;54.22;24.70;;;;;;;;;;4864305;29;20226;-91
2023/01/29 10:59:53;;;;;;;36.80;18.58;;;;;;;;;;4808566;29;20047;-91
2023/01/29 11:02:21;;;;;;;51.22;23.92;;;;;;;;;;4808736;29;20068;-91
2023/01/29 11:04:47;;;;;;;46.70;24.13;;;;;;;;;;4808940;29;20042;-92
2023/01/29 11:07:15;;;;;;;37.72;19.10;;;;;;;;;;4808810;29;20026;-90
2023/01/29 11:09:43;;;;;;;49.25;22.35;;;;;;;;;;4807073;29;20179;-90
2023/01/29 11:12:13;;;;;;;67.45;32.80;;;;;;;;;;4800670;29;20062;-92
2023/01/29 11:14:51;;;;;;;61.22;26.73;;;;;;;;;;4803375;29;20140;-90
2023/01/29 11:17:19;;;;;;;48.42;21.85;;;;;;;;;;4791078;29;20043;-90
2023/01/29 11:19:47;;;;;;;46.42;20.63;;;;;;;;;;4798894;29;20039;-90
2023/01/29 11:22:18;;;;;;;41.72;19.85;;;;;;;;;;4791775;29;20039;-91
2023/01/29 11:24:44;;;;;;;29.45;15.15;;;;;;;;;;4807219;29;20366;-91
2023/01/29 11:27:24;;;;;;;42.30;18.98;;;;;;;;;;4787396;29;20439;-90
2023/01/29 11:29:51;;;;;;;38.35;19.27;;;;;;;;;;4797015;29;20122;-90
2023/01/29 11:32:20;;;;;;;40.95;20.75;;;;;;;;;;4794271;29;20462;-91
2023/01/29 11:35:00;;;;;;;62.13;28.70;;;;;;;;;;4801061;29;20042;-90
2023/01/29 11:37:41;;;;;;;56.38;26.40;;;;;;;;;;4887091;29;20136;-91
2023/01/29 11:40:21;;;;;;;50.55;23.48;;;;;;;;;;4886724;29;20416;-89
2023/01/29 11:42:47;;;;;;;55.42;26.77;;;;;;;;;;4870167;29;20029;-90
2023/01/29 11:45:19;;;;;;;45.42;22.52;;;;;;;;;;4870940;29;20033;-91
2023/01/29 11:47:55;;;;;;;44.30;23.75;;;;;;;;;;4870018;29;20045;-90
2023/01/29 11:50:24;;;;;;;51.53;26.55;;;;;;;;;;4868384;29;20029;-90
2023/01/29 11:52:50;;;;;;;41.70;21.60;;;;;;;;;;4868180;29;20043;-90
2023/01/29 11:55:18;;;;;;;42.55;21.10;;;;;;;;;;4885511;29;20041;-90
2023/01/29 11:58:21;;;;;;;36.30;18.65;;;;;;;;;;4886911;29;20029;-90
2023/01/29 12:00:49;;;;;;;34.30;17.58;;;;;;;;;;4884651;29;20108;-90
2023/01/29 12:03:19;;;;;;;49.40;24.23;;;;;;;;;;4869551;29;20044;-91
2023/01/29 12:06:06;;;;;;;46.03;21.52;;;;;;;;;;4886602;29;20021;-90
2023/01/29 12:11:37;;;;;;;32.85;16.85;;;;;;;;;;4886776;29;20056;-91
2023/01/29 12:14:26;;;;;;;47.08;22.02;;;;;;;;;;4886537;29;20033;-90
2023/01/29 12:16:54;;;;;;;50.28;22.90;;;;;;;;;;4870240;29;20128;-89
2023/01/29 12:19:20;;;;;;;54.92;24.48;;;;;;;;;;4870300;29;20043;-90
2023/01/29 12:21:48;;;;;;;47.90;23.08;;;;;;;;;;4886575;29;20328;-89
2023/01/29 12:24:25;;;;;;;46.03;21.90;;;;;;;;;;4886406;29;20040;-90
2023/01/29 12:27:09;;;;;;;33.55;15.93;;;;;;;;;;4886055;29;20033;-88
2023/01/29 12:29:54;;;;;;;39.92;19.52;;;;;;;;;;4886722;29;20089;-91
2023/01/29 12:32:42;;;;;;;43.85;20.55;;;;;;;;;;4886607;29;20033;-89
2023/01/29 12:35:15;;;;;;;37.00;17.58;;;;;;;;;;4886258;29;20029;-90
2023/01/29 12:37:53;;;;;;;31.95;17.23;;;;;;;;;;4886091;29;20344;-90
2023/01/29 12:40:21;;;;;;;40.22;20.80;;;;;;;;;;4884302;29;20032;-91
2023/01/29 12:42:53;;;;;;;33.10;17.88;;;;;;;;;;4885478;29;20116;-90
2023/01/29 12:45:20;;;;;;;32.25;15.88;;;;;;;;;;4886047;29;20040;-90
2023/01/29 12:47:48;;;;;;;30.23;15.20;;;;;;;;;;4866679;29;20029;-91
2023/01/29 12:50:18;;;;;;;31.35;16.05;;;;;;;;;;4867523;29;20029;-92
2023/01/29 12:52:47;;;;;;;29.33;16.25;;;;;;;;;;4876127;29;20067;-91
2023/01/29 12:55:33;;;;;;;28.77;16.05;;;;;;;;;;4886120;29;20164;-91
2023/01/29 12:58:36;;;;;;;27.52;15.57;;;;;;;;;;4792660;29;20038;-90
2023/01/29 13:01:11;;;;;;;31.13;16.52;;;;;;;;;;4792869;30;20047;-91
2023/01/29 13:03:55;;;;;;;32.08;17.00;;;;;;;;;;4792762;30;20094;-91
2023/01/29 13:06:48;;;;;;;35.90;18.38;;;;;;;;;;4792606;29;20036;-90
2023/01/29 13:09:16;;;;;;;29.13;16.25;;;;;;;;;;4780993;30;20109;-90
2023/01/29 13:12:01;;;;;;;32.72;18.15;;;;;;;;;;4798693;29;20039;-91
2023/01/29 13:14:33;;;;;;;27.30;15.52;;;;;;;;;;4810605;29;20039;-92
2023/01/29 13:16:59;;;;;;;;;;;;;;;;;;4810950;29;20071;-90
2023/01/29 13:19:31;;;;;;;33.53;16.17;;;;;;;;;;4807228;29;19913;-90
2023/01/29 13:22:00;;;;;;;30.40;16.13;;;;;;;;;;4806802;29;20038;-91
2023/01/29 13:24:30;;;;;;;51.00;22.45;;;;;;;;;;4786791;29;20050;-92
2023/01/29 13:26:56;;;;;;;84.75;33.22;;;;;;;;;;4810716;29;20039;-89
2023/01/29 13:29:27;;;;;;;86.40;34.45;;;;;;;;;;4810535;29;20430;-92
2023/01/29 13:31:54;;;;;;;89.13;36.90;;;;;;;;;;4810186;29;20058;-92
2023/01/29 13:34:31;;;;;;;78.00;32.75;;;;;;;;;;4825358;29;20044;-92
2023/01/29 13:36:58;;;;;;;57.70;24.88;;;;;;;;;;4868637;29;20045;-92
2023/01/29 13:39:28;;;;;;;59.90;25.98;;;;;;;;;;4868798;29;20080;-92
2023/01/29 13:41:54;;;;;;;55.53;26.20;;;;;;;;;;4868881;29;20093;-92
2023/01/29 13:50:38;;;;;;;52.47;26.02;;;;;;;;;;4885313;29;20040;-91
2023/01/29 13:53:07;;;;;;;48.42;23.73;;;;;;;;;;4884552;29;20447;-92
2023/01/29 13:55:33;;;;;;;38.00;19.77;;;;;;;;;;4856230;29;20036;-93
2023/01/29 14:01:02;;;;;;;55.13;25.48;;;;;;;;;;4883635;29;20081;-92
2023/01/29 14:03:29;;;;;;;46.45;22.88;;;;;;;;;;4868832;29;20037;-91
2023/01/29 14:05:55;;;;;;;45.03;21.10;;;;;;;;;;4868241;29;20076;-91
2023/01/29 14:08:42;;;;;;;59.92;27.55;;;;;;;;;;4868544;29;20045;-91
2023/01/29 14:11:14;;;;;;;59.05;27.85;;;;;;;;;;4884621;29;20069;-93
2023/01/29 14:16:44;;;;;;;47.28;22.98;;;;;;;;;;4884905;29;20040;-91
2023/01/29 14:19:17;;;;;;;40.90;21.35;;;;;;;;;;4884625;29;20036;-92
2023/01/29 14:21:49;;;;;;;60.38;28.42;;;;;;;;;;4884281;29;20028;-92
2023/01/29 14:24:19;;;;;;;47.00;23.58;;;;;;;;;;4884244;29;20060;-93
2023/01/29 14:26:48;;;;;;;50.75;24.80;;;;;;;;;;4868026;29;20044;-91
2023/01/29 14:29:19;;;;;;;44.08;23.80;;;;;;;;;;4883598;29;20025;-89
2023/01/29 14:31:45;;;;;;;57.80;29.58;;;;;;;;;;4871407;29;20033;-91
2023/01/29 14:34:23;;;;;;;57.30;29.80;;;;;;;;;;4867858;29;20037;-91
2023/01/29 14:36:54;;;;;;;62.03;32.15;;;;;;;;;;4883807;29;20048;-91
2023/01/29 14:39:27;;;;;;;62.60;30.05;;;;;;;;;;4884562;29;20029;-92
2023/01/29 14:41:53;;;;;;;78.55;33.97;;;;;;;;;;4883245;29;20033;-91
2023/01/29 14:44:55;;;;;;;77.88;37.15;;;;;;;;;;4883236;29;20459;-90
2023/01/29 14:47:44;;;;;;;59.90;29.42;;;;;;;;;;4808988;29;20062;-92
2023/01/29 14:50:28;;;;;;;50.30;26.50;;;;;;;;;;4793720;29;20315;-91
2023/01/29 14:52:58;;;;;;;54.60;26.35;;;;;;;;;;4808967;29;20079;-92
2023/01/29 14:55:37;;;;;;;48.38;24.02;;;;;;;;;;4808311;29;20053;-90
2023/01/29 15:01:14;;;;;;;41.47;22.25;;;;;;;;;;4808991;29;20200;-90
2023/01/29 15:03:40;;;;;;;42.38;22.27;;;;;;;;;;4808646;29;20054;-91
2023/01/29 15:06:09;;;;;;;43.80;23.77;;;;;;;;;;4808669;29;20308;-92
2023/01/29 15:08:38;;;;;;;72.38;33.80;;;;;;;;;;4808760;29;20051;-91
2023/01/29 15:13:57;;;;;;;80.78;37.83;;;;;;;;;;4809138;29;20101;-92
2023/01/29 15:16:28;;;;;;;49.97;25.58;;;;;;;;;;4808915;29;20064;-92
2023/01/29 15:18:56;;;;;;;70.95;34.60;;;;;;;;;;4808613;29;20031;-94
2023/01/29 15:21:22;;;;;;;57.85;28.70;;;;;;;;;;4829134;29;20065;-91
2023/01/29 15:24:02;;;;;;;61.83;31.17;;;;;;;;;;4869713;29;20297;-92
2023/01/29 15:26:29;;;;;;;50.78;26.65;;;;;;;;;;4883490;29;20120;-92
2023/01/29 15:28:56;;;;;;;74.15;37.42;;;;;;;;;;4883767;29;20044;-92
2023/01/29 15:31:22;;;;;;;55.63;28.10;;;;;;;;;;4867525;29;20069;-92
2023/01/29 15:33:50;;;;;;;56.47;31.55;;;;;;;;;;4867279;29;20040;-90
2023/01/29 15:36:26;;;;;;;65.53;35.85;;;;;;;;;;4883256;29;20049;-89
2023/01/29 15:39:18;;;;;;;59.58;30.33;;;;;;;;;;4883517;29;20029;-90
2023/01/29 15:41:45;;;;;;;54.63;29.15;;;;;;;;;;4879984;29;20336;-89
2023/01/29 15:47:15;;;;;;;56.72;30.50;;;;;;;;;;4896806;29;20065;-90
2023/01/29 15:49:41;;;;;;;60.15;32.33;;;;;;;;;;4867118;29;20068;-91
2023/01/29 15:52:28;;;;;;;66.03;34.63;;;;;;;;;;4848741;29;20042;-88
2023/01/29 15:54:56;;;;;;;87.80;42.47;;;;;;;;;;4864660;29;20034;-92
2023/01/29 15:57:28;;;;;;;102.00;44.25;;;;;;;;;;4856904;29;20037;-91
2023/01/29 15:59:56;;;;;;;137.13;55.92;;;;;;;;;;4855985;29;20033;-92
2023/01/29 16:02:34;;;;;;;123.35;51.00;;;;;;;;;;4893931;29;20043;-92
2023/01/29 16:05:00;;;;;;;122.47;51.38;;;;;;;;;;4866338;29;20421;-94
2023/01/29 16:07:27;;;;;;;78.03;37.75;;;;;;;;;;4869117;29;20036;-92
2023/01/29 16:09:53;;;;;;;68.53;33.53;;;;;;;;;;4883189;29;20029;-94
2023/01/29 16:12:19;;;;;;;52.00;29.08;;;;;;;;;;4882601;29;20067;-93
2023/01/29 16:14:46;;;;;;;58.83;31.10;;;;;;;;;;4883359;29;20029;-93
2023/01/29 16:17:34;;;;;;;51.90;27.58;;;;;;;;;;4882724;29;20025;-92
2023/01/29 16:20:02;;;;;;;48.78;25.83;;;;;;;;;;4886805;29;20108;-92
2023/01/29 16:22:30;;;;;;;56.95;30.25;;;;;;;;;;4886154;29;20528;-95
2023/01/29 16:24:57;;;;;;;47.88;25.83;;;;;;;;;;4885153;29;20037;-92
2023/01/29 16:27:25;;;;;;;71.55;32.63;;;;;;;;;;4869927;29;20123;-92
2023/01/29 16:35:58;;;;;;;57.83;30.85;;;;;;;;;;4883053;29;20104;-93
2023/01/29 16:38:30;;;;;;;52.45;29.15;;;;;;;;;;4869865;29;20093;-95
2023/01/29 16:41:16;;;;;;;63.87;32.90;;;;;;;;;;4869643;29;20029;-92
2023/01/29 16:43:54;;;;;;;56.75;30.50;;;;;;;;;;4869974;29;20021;-93
2023/01/29 16:46:31;;;;;;;66.35;29.73;;;;;;;;;;4891716;29;20052;-93
2023/01/29 16:48:57;;;;;;;67.35;30.35;;;;;;;;;;4888200;29;20032;-94
2023/01/29 16:51:28;;;;;;;72.30;32.47;;;;;;;;;;4904828;29;20439;-94
2023/01/29 16:53:56;;;;;;;58.42;28.23;;;;;;;;;;4869606;29;20048;-96
2023/01/29 16:56:22;;;;;;;37.67;20.17;;;;;;;;;;4884058;29;20026;-93
2023/01/29 16:58:49;;;;;;;43.13;21.70;;;;;;;;;;4890853;29;20063;-93
2023/01/29 17:01:16;;;;;;;45.10;23.35;;;;;;;;;;4898297;29;20468;-92
2023/01/29 17:33:33;;;;;;;;;;;;;;;;;;920452;23;20237;-96
2023/01/29 17:35:59;;;;;;;45.92;22.40;;;;;;;;;;4902781;29;19947;-95
2023/01/29 17:38:25;;;;;;;47.65;22.98;;;;;;;;;;4907580;29;20025;-95
2023/01/29 17:41:16;;;;;;;48.58;23.52;;;;;;;;;;4905544;29;20108;-95
2023/01/29 17:52:54;;;;;;;34.08;18.42;;;;;;;;;;4885811;29;20032;-95
2023/01/29 17:55:21;;;;;;;38.85;20.13;;;;;;;;;;4885004;29;20036;-94
2023/01/29 17:57:47;;;;;;;40.42;21.02;;;;;;;;;;4899487;29;20055;-92
2023/01/29 18:03:18;;;;;;;43.63;20.65;;;;;;;;;;4900339;29;20056;-91
2023/01/29 18:05:45;;;;;;;42.90;22.48;;;;;;;;;;4903684;29;20407;-92
2023/01/29 18:11:16;;;;;;;37.08;22.55;;;;;;;;;;4908553;29;20431;-92
2023/01/29 18:13:52;;;;;;;30.40;20.23;;;;;;;;;;4893377;29;20033;-91
2023/01/29 18:24:54;;;;;;;36.47;22.55;;;;;;;;;;4903667;29;20043;-93
2023/01/29 18:36:12;;;;;;;31.38;19.08;;;;;;;;;;4920923;29;20508;-92
2023/01/29 19:35:23;;;;;;;22.70;13.32;;;;;;;;;;4975923;23;20060;-91
2023/01/29 19:37:49;;;;;;;20.30;11.73;;;;;;;;;;4921164;29;20116;-93
2023/01/29 19:40:15;;;;;;;20.30;12.75;;;;;;;;;;4920105;29;20031;-91
2023/01/29 19:42:41;;;;;;;19.17;11.52;;;;;;;;;;4921122;29;20025;-91
2023/01/29 20:51:21;;;;;;;30.45;17.98;;;;;;;;;;4921885;29;19946;-91
2023/01/29 20:53:47;;;;;;;32.90;19.40;;;;;;;;;;4923505;29;20039;-90
2023/01/29 20:56:14;;;;;;;47.42;24.88;;;;;;;;;;4922745;29;20422;-91
2023/01/29 20:58:40;;;;;;;81.13;40.00;;;;;;;;;;4928995;29;20064;-94
2023/01/29 21:01:07;;;;;;;65.20;32.60;;;;;;;;;;4922975;29;20043;-92
2023/01/29 21:03:33;;;;;;;46.72;29.73;;;;;;;;;;4923202;29;20028;-92
2023/01/29 21:05:59;;;;;;;46.85;29.83;;;;;;;;;;4921090;29;20028;-91
2023/01/29 21:08:25;;;;;;;31.33;20.27;;;;;;;;;;4923372;29;20028;-91
2023/01/29 21:10:52;;;;;;;27.63;16.27;;;;;;;;;;4923134;29;20433;-92
2023/01/29 21:13:18;;;;;;;28.30;17.45;;;;;;;;;;4923747;29;20024;-93
2023/01/29 21:18:48;;;;;;;30.17;18.15;;;;;;;;;;4923644;29;20495;-91
2023/01/29 21:21:14;;;;;;;29.70;19.42;;;;;;;;;;4922663;29;20028;-95
2023/01/29 21:23:40;;;;;;;28.45;18.98;;;;;;;;;;4923372;29;20075;-96
2023/01/29 21:26:06;;;;;;;27.27;16.98;;;;;;;;;;4923382;29;20028;-94
2023/01/29 21:28:33;;;;;;;30.67;18.60;;;;;;;;;;4927115;29;20026;-92
2023/01/29 21:34:36;;;;;;;45.03;25.65;;;;;;;;;;4942272;29;20520;-93
2023/01/29 21:37:04;;;;;;;37.40;20.70;;;;;;;;;;4940953;28;20039;-92
2023/01/29 21:39:30;;;;;;;44.50;23.42;;;;;;;;;;4929472;29;20036;-92
2023/01/29 21:44:40;;;;;;;122.50;44.85;;;;;;;;;;4935844;29;20042;-93
2023/01/29 21:50:10;;;;;;;73.80;30.13;;;;;;;;;;4917670;29;20054;-92
2023/01/29 21:52:36;;;;;;;86.95;37.53;;;;;;;;;;4923087;29;20067;-93
2023/01/29 21:55:03;;;;;;;98.40;42.58;;;;;;;;;;4921390;29;20029;-92
2023/01/29 21:57:29;;;;;;;120.65;45.33;;;;;;;;;;4918198;29;20039;-94
2023/01/29 22:05:44;;;;;;;72.10;34.33;;;;;;;;;;4922782;29;20038;-92
2023/01/29 22:08:10;;;;;;;74.82;35.58;;;;;;;;;;4905839;29;20043;-92
2023/01/29 22:10:36;;;;;;;70.10;33.25;;;;;;;;;;4922340;29;20032;-93
2023/01/29 22:13:03;;;;;;;72.80;34.17;;;;;;;;;;4922497;29;20034;-92
2023/01/29 22:15:29;;;;;;;75.07;35.60;;;;;;;;;;4921396;29;20032;-91
2023/01/29 22:17:55;;;;;;;52.08;28.05;;;;;;;;;;4905566;29;20360;-91
2023/01/29 22:20:28;;;;;;;47.05;25.67;;;;;;;;;;4922316;29;20028;-92
2023/01/29 22:22:55;;;;;;;61.35;30.98;;;;;;;;;;4922351;29;20377;-92
2023/01/29 22:25:21;;;;;;;69.93;35.70;;;;;;;;;;4905384;29;20064;-94
2023/01/29 22:27:47;;;;;;;78.88;38.47;;;;;;;;;;4905851;29;20032;-94
2023/01/29 22:39:37;;;;;;;43.30;22.60;;;;;;;;;;4922159;29;20035;-93
2023/01/29 22:42:03;;;;;;;35.40;20.92;;;;;;;;;;4912262;29;20058;-93
2023/01/29 22:44:29;;;;;;;37.40;20.30;;;;;;;;;;4939455;29;20050;-92
2023/01/29 22:49:59;;;;;;;33.83;20.48;;;;;;;;;;4940742;29;20423;-93
2023/01/29 22:52:26;;;;;;;42.28;25.20;;;;;;;;;;4939765;29;20028;-92
2023/01/29 22:54:52;;;;;;;36.13;21.45;;;;;;;;;;4939075;29;20035;-94
2023/01/29 22:57:19;;;;;;;33.90;19.10;;;;;;;;;;4939490;29;20023;-93
2023/01/29 22:59:45;;;;;;;35.83;20.95;;;;;;;;;;4937486;29;20020;-92
2023/01/29 23:05:14;;;;;;;36.85;19.85;;;;;;;;;;4921913;29;20068;-93
2023/01/29 23:07:41;;;;;;;33.90;19.63;;;;;;;;;;4921648;29;20107;-93
2023/01/29 23:10:07;;;;;;;32.63;19.42;;;;;;;;;;4921661;29;20032;-93
2023/01/29 23:12:33;;;;;;;33.03;19.65;;;;;;;;;;4921579;29;20055;-93
2023/01/29 23:14:59;;;;;;;36.22;20.60;;;;;;;;;;4904599;29;20439;-91
2023/01/29 23:20:48;;;;;;;29.63;17.95;;;;;;;;;;4921520;29;20083;-93
2023/01/29 23:23:14;;;;;;;28.73;17.98;;;;;;;;;;4905044;29;20111;-93
2023/01/29 23:28:24;;;;;;;33.47;19.73;;;;;;;;;;4927749;29;20487;-92
2023/01/29 23:33:54;;;;;;;53.85;27.70;;;;;;;;;;4927801;29;20044;-91
2023/01/29 23:36:20;;;;;;;51.05;25.55;;;;;;;;;;4910905;29;20027;-93
2023/01/29 23:38:46;;;;;;;54.97;27.40;;;;;;;;;;4927829;29;20087;-92
2023/01/29 23:41:12;;;;;;;43.90;22.80;;;;;;;;;;4927895;29;20262;-92
2023/01/29 23:43:38;;;;;;;35.17;20.55;;;;;;;;;;4910924;29;20142;-92
2023/01/29 23:49:08;;;;;;;41.00;22.52;;;;;;;;;;4927441;29;20068;-94
2023/01/29 23:51:34;;;;;;;42.72;22.23;;;;;;;;;;4910621;29;20044;-92
2023/01/29 23:54:01;;;;;;;42.85;23.25;;;;;;;;;;4910617;29;20434;-92
2023/01/29 23:56:27;;;;;;;43.33;23.13;;;;;;;;;;4910414;29;20032;-93
2023/01/29 23:58:53;;;;;;;35.70;20.10;;;;;;;;;;4910693;29;20036;-93
